Главная страница
METAR-TAF:

METAR-TAF

Аэропорты :

Бермудские острова, Бермуды

широта: 32-22N, долгота: 064-41W, высота над уровнем моря: 6 м

Текущие метеонаблюдения

Эта сводка был подготовлена 43 минут назад, в 21:55 UTC
Ветер 3 Узел от северо-западный
Температура 20°C
Влажность 64%
Давление 1033 hPa
Видимость 10 км и более
Отдельные облака на высоте 3500 фута
Отдельные облака на высоте 20000 фута

METAR: TXKF 222155Z 32003KT 9999 SCT035 SCT200 20/13 Q1033

Время: 18:38 (22:38 UTC)

Прогноз

Эта сводка был подготовлена 5 часа и 7 минут назад, в 17:31 UTC
Прогноз действительный с 22-го 18 UTC до 23-го 18 UTC
Ветер 3 Узел переменных направлений
Видимость 10 км и более
Отдельные облака на высоте 3000 фута
изменения
С 23-го 03 UTC до 23-го 05 UTC
Ветер 8 Узел от северно-северо-западный

TAF: TXKF 221731Z 2218/2318 VRB03KT 9999 SCT030 BECMG 2303/2305 33008KT

Метеонаблюдения и прогнозы для более 4000 аэропортов (сводки METAR и TAF).

Имеющиеся станции представлены на карте желтыми и красными точками.

Чтобы увидеть название станции, наведите на нее мышь.

Затем щелкните, чтобы увидеть метеонаблюдения и метеопрогнозы.

Управление картой: чтобы увеличить масштаб, щелкните зеленые кнопки с черным крестиком; чтобы уменьшить масштаб, щелкните зеленую кнопку с тире; для просмотра соседних карт щелкайте зеленые стрелки.


METAR-TAF: